createdAt,value
2023-04-25T00:00:43.909Z,12.73
2023-04-25T00:03:09.749Z,15.25
2023-04-25T00:05:37.387Z,16.27
2023-04-25T00:08:04.257Z,11.52
2023-04-25T00:10:30.101Z,15.48
2023-04-25T00:12:55.855Z,15.55
2023-04-25T00:15:24.734Z,15.40
2023-04-25T00:17:53.085Z,17.17
2023-04-25T00:20:18.943Z,19.73
2023-04-25T00:22:44.709Z,13.73
2023-04-25T00:25:10.512Z,17.73
2023-04-25T00:27:36.966Z,18.20
2023-04-25T00:30:03.296Z,19.67
2023-04-25T00:32:29.138Z,14.40
2023-04-25T00:34:56.134Z,20.52
2023-04-25T00:37:22.375Z,17.23
2023-04-25T00:39:48.180Z,13.73
2023-04-25T00:42:14.094Z,11.98
2023-04-25T00:44:40.047Z,21.25
2023-04-25T00:47:07.216Z,23.88
2023-04-25T00:49:33.075Z,15.85
2023-04-25T00:51:59.378Z,18.13
2023-04-25T00:54:25.599Z,14.52
2023-04-25T00:56:51.492Z,18.02
2023-04-25T00:59:18.615Z,17.25
2023-04-25T01:01:45.434Z,16.90
2023-04-25T01:04:11.533Z,14.40
2023-04-25T01:06:37.424Z,17.63
2023-04-25T01:09:05.211Z,16.65
2023-04-25T01:11:31.326Z,21.23
2023-04-25T01:13:57.621Z,19.42
2023-04-25T01:16:24.248Z,14.45
2023-04-25T01:18:51.522Z,19.52
2023-04-25T01:21:17.618Z,12.25
2023-04-25T01:23:43.618Z,15.15
2023-04-25T01:26:10.856Z,14.57
2023-04-25T01:28:37.533Z,18.10
2023-04-25T01:31:04.324Z,15.98
2023-04-25T01:33:30.343Z,11.13
2023-04-25T01:35:56.176Z,17.90
2023-04-25T01:38:22.200Z,14.18
2023-04-25T01:40:51.112Z,16.38
2023-04-25T01:43:16.942Z,15.35
2023-04-25T01:45:43.077Z,17.92
2023-04-25T01:48:10.287Z,15.98
2023-04-25T01:50:37.349Z,19.45
2023-04-25T01:53:06.580Z,17.75
2023-04-25T01:55:32.442Z,17.13
2023-04-25T01:57:59.200Z,16.38
2023-04-25T02:00:25.050Z,13.02
2023-04-25T02:02:51.036Z,14.63
2023-04-25T02:05:17.672Z,16.92
2023-04-25T02:07:43.783Z,19.05
2023-04-25T02:10:10.107Z,16.15
2023-04-25T02:12:36.245Z,15.23
2023-04-25T02:15:02.478Z,20.25
2023-04-25T02:17:28.418Z,20.02
2023-04-25T02:19:54.169Z,15.57
2023-04-25T02:22:19.891Z,18.17
2023-04-25T02:24:46.524Z,17.42
2023-04-25T02:27:12.336Z,20.73
2023-04-25T02:29:38.523Z,16.33
2023-04-25T02:32:04.647Z,17.05
2023-04-25T02:34:30.556Z,18.92
2023-04-25T02:36:56.477Z,17.45
2023-04-25T02:39:22.522Z,14.82
2023-04-25T02:41:48.354Z,18.15
2023-04-25T02:44:14.110Z,20.83
2023-04-25T02:46:40.083Z,18.98
2023-04-25T02:49:06.790Z,21.67
2023-04-25T02:51:32.888Z,18.33
2023-04-25T02:53:58.935Z,18.00
2023-04-25T02:56:26.376Z,18.48
2023-04-25T02:58:53.367Z,20.42
2023-04-25T03:01:19.280Z,18.73
2023-04-25T03:03:45.335Z,22.70
2023-04-25T03:06:11.436Z,15.38
2023-04-25T03:08:37.210Z,22.42
2023-04-25T03:11:03.070Z,22.40
2023-04-25T03:13:30.153Z,20.80
2023-04-25T03:15:56.063Z,27.50
2023-04-25T03:18:21.824Z,20.58
2023-04-25T03:20:47.624Z,21.10
2023-04-25T03:23:13.455Z,23.98
2023-04-25T03:25:39.317Z,21.48
2023-04-25T03:28:05.315Z,20.83
2023-04-25T03:30:31.206Z,23.88
2023-04-25T03:32:57.066Z,24.95
2023-04-25T03:35:25.012Z,22.77
2023-04-25T03:37:51.704Z,18.02
2023-04-25T03:40:17.489Z,22.70
2023-04-25T03:42:45.063Z,20.65
2023-04-25T03:45:11.756Z,21.50
2023-04-25T03:47:37.697Z,24.70
2023-04-25T03:50:03.889Z,23.92
2023-04-25T03:52:29.689Z,23.35
2023-04-25T03:54:55.510Z,22.67
2023-04-25T03:57:21.283Z,16.65
2023-04-25T03:59:47.129Z,20.98
2023-04-25T04:02:13.072Z,17.98
2023-04-25T04:04:39.239Z,18.13
2023-04-25T04:07:05.252Z,20.60
2023-04-25T04:09:31.045Z,23.40
2023-04-25T04:11:57.000Z,19.90
2023-04-25T04:14:22.801Z,15.25
2023-04-25T04:16:48.625Z,18.48
2023-04-25T04:19:14.710Z,15.68
2023-04-25T04:21:40.671Z,14.90
2023-04-25T04:24:06.572Z,12.60
2023-04-25T04:26:34.638Z,12.40
2023-04-25T04:29:00.691Z,15.45
2023-04-25T04:31:26.499Z,13.80
2023-04-25T04:33:52.612Z,12.90
2023-04-25T04:36:23.251Z,14.05
2023-04-25T04:38:49.506Z,16.17
2023-04-25T04:41:15.306Z,13.32
2023-04-25T04:43:41.981Z,12.05
2023-04-25T04:46:07.823Z,13.20
2023-04-25T04:48:34.443Z,15.95
2023-04-25T04:51:00.812Z,13.95
2023-04-25T04:53:27.208Z,8.90
2023-04-25T04:55:53.424Z,15.20
2023-04-25T04:58:19.358Z,13.52
2023-04-25T05:00:45.681Z,14.65
2023-04-25T05:03:11.905Z,14.23
2023-04-25T05:05:40.292Z,16.92
2023-04-25T05:08:06.659Z,15.65
2023-04-25T05:10:32.549Z,17.23
2023-04-25T05:12:58.384Z,17.30
2023-04-25T05:15:24.215Z,16.95
2023-04-25T05:17:50.096Z,21.67
2023-04-25T05:20:16.087Z,27.98
2023-04-25T05:22:42.037Z,21.75
2023-04-25T05:25:09.021Z,22.00
2023-04-25T05:27:34.954Z,21.20
2023-04-25T05:30:00.798Z,22.10
2023-04-25T05:32:27.105Z,23.48
2023-04-25T05:34:53.137Z,24.90
2023-04-25T05:37:19.030Z,20.08
2023-04-25T05:39:44.851Z,17.02
2023-04-25T05:42:10.798Z,19.52
2023-04-25T05:44:36.562Z,20.42
2023-04-25T05:47:03.033Z,11.60
2023-04-25T05:49:28.899Z,12.60
2023-04-25T05:51:54.882Z,14.65
2023-04-25T05:54:20.780Z,8.25
2023-04-25T05:56:46.589Z,10.75
2023-04-25T05:59:12.430Z,11.07
2023-04-25T06:01:38.254Z,18.55
2023-04-25T06:04:04.636Z,12.05
2023-04-25T06:06:30.793Z,12.18
2023-04-25T06:08:56.581Z,13.82
2023-04-25T06:11:22.649Z,15.15
2023-04-25T06:13:48.733Z,14.35
2023-04-25T06:16:14.808Z,18.73
2023-04-25T06:18:40.838Z,15.18
2023-04-25T06:21:06.874Z,16.10
2023-04-25T06:23:32.674Z,14.35
2023-04-25T06:25:58.479Z,15.68
2023-04-25T06:28:24.739Z,13.52
2023-04-25T06:30:51.230Z,14.23
2023-04-25T06:33:17.030Z,15.18
2023-04-25T06:35:42.917Z,16.30
2023-04-25T06:38:08.859Z,19.48
2023-04-25T06:40:34.789Z,14.95
2023-04-25T06:43:00.621Z,13.05
2023-04-25T06:45:26.433Z,17.67
2023-04-25T06:47:52.275Z,18.40
2023-04-25T06:50:18.173Z,16.13
2023-04-25T06:52:44.005Z,17.90
2023-04-25T06:55:10.290Z,23.00
2023-04-25T06:57:36.147Z,14.02
2023-04-25T07:00:05.587Z,14.68
2023-04-25T07:02:31.572Z,13.90
2023-04-25T07:05:00.026Z,15.30
2023-04-25T07:07:26.573Z,15.02
2023-04-25T07:09:52.420Z,20.13
2023-04-25T07:12:18.235Z,14.95
2023-04-25T07:14:44.068Z,19.35
2023-04-25T07:17:10.123Z,20.35
2023-04-25T07:19:37.611Z,18.83
2023-04-25T07:22:03.369Z,15.52
2023-04-25T07:24:29.260Z,11.95
2023-04-25T07:26:54.990Z,14.15
2023-04-25T07:29:20.719Z,12.13
2023-04-25T07:31:46.563Z,16.20
2023-04-25T07:34:12.315Z,15.55
2023-04-25T07:36:38.135Z,13.65
2023-04-25T07:39:03.964Z,12.98
2023-04-25T07:41:29.889Z,15.68
2023-04-25T07:43:55.654Z,13.73
2023-04-25T07:46:21.505Z,8.45
2023-04-25T07:48:47.491Z,14.20
2023-04-25T07:51:13.330Z,10.98
2023-04-25T07:53:39.677Z,13.48
2023-04-25T07:56:05.829Z,14.82
2023-04-25T07:58:31.838Z,10.45
2023-04-25T08:00:57.679Z,19.40
2023-04-25T08:03:23.695Z,12.80
2023-04-25T08:05:49.781Z,16.38
2023-04-25T08:08:15.755Z,17.25
2023-04-25T08:10:42.275Z,13.68
2023-04-25T08:13:08.027Z,10.93
2023-04-25T08:15:35.824Z,16.15
2023-04-25T08:18:01.753Z,15.43
2023-04-25T08:20:27.910Z,10.65
2023-04-25T08:22:53.732Z,15.40
2023-04-25T08:25:19.579Z,13.75
2023-04-25T08:27:45.454Z,16.92
2023-04-25T08:30:11.688Z,18.67
2023-04-25T08:32:40.743Z,10.95
2023-04-25T08:35:07.165Z,18.13
2023-04-25T08:37:32.936Z,10.18
2023-04-25T08:39:58.968Z,13.57
2023-04-25T08:42:25.066Z,12.18
2023-04-25T08:44:53.307Z,12.80
2023-04-25T08:47:22.813Z,12.68
2023-04-25T08:49:50.487Z,8.20
2023-04-25T08:52:22.818Z,14.65
2023-04-25T08:54:49.859Z,9.65
2023-04-25T08:57:15.766Z,7.95
2023-04-25T08:59:45.841Z,9.60
2023-04-25T09:02:16.027Z,11.70
2023-04-25T09:04:44.249Z,9.65
2023-04-25T09:07:10.225Z,12.68
2023-04-25T09:09:36.505Z,14.80
2023-04-25T09:12:02.346Z,11.32
2023-04-25T09:14:28.371Z,18.73
2023-04-25T09:16:57.356Z,18.58
2023-04-25T09:19:39.633Z,12.30
2023-04-25T09:22:07.317Z,9.00
2023-04-25T09:24:35.464Z,19.70
2023-04-25T09:27:13.582Z,15.48
2023-04-25T09:29:41.302Z,16.67
2023-04-25T09:32:19.380Z,15.95
2023-04-25T09:34:50.845Z,19.58
2023-04-25T09:37:21.852Z,9.27
2023-04-25T09:39:53.295Z,12.82
2023-04-25T09:42:22.657Z,13.73
2023-04-25T09:44:48.464Z,15.98
2023-04-25T09:47:16.733Z,10.85
2023-04-25T09:49:43.387Z,10.18
2023-04-25T09:52:19.894Z,23.25
2023-04-25T09:54:48.469Z,13.07
2023-04-25T09:57:15.535Z,20.08
2023-04-25T09:59:49.592Z,11.77
2023-04-25T10:02:20.786Z,13.48
2023-04-25T10:04:51.763Z,12.55
2023-04-25T10:07:19.232Z,14.65
2023-04-25T10:09:48.560Z,12.73
2023-04-25T10:12:15.053Z,8.45
2023-04-25T10:14:41.426Z,8.65
2023-04-25T10:17:09.137Z,10.63
2023-04-25T10:19:35.204Z,17.85
2023-04-25T10:22:06.280Z,6.88
2023-04-25T10:24:32.557Z,9.30
2023-04-25T10:26:59.107Z,11.52
2023-04-25T10:29:26.598Z,5.20
2023-04-25T10:31:52.976Z,5.28
2023-04-25T10:34:19.787Z,6.60
2023-04-25T10:36:52.648Z,5.85
2023-04-25T10:39:27.573Z,5.65
2023-04-25T10:41:58.348Z,4.53
2023-04-25T10:44:28.886Z,7.07
2023-04-25T10:46:59.330Z,4.30
2023-04-25T10:49:42.598Z,6.93
2023-04-25T10:52:18.936Z,7.10
2023-04-25T10:54:56.149Z,6.93
2023-04-25T10:57:46.507Z,3.92
2023-04-25T11:00:16.249Z,4.53
2023-04-25T11:02:52.751Z,6.10
2023-04-25T11:05:43.995Z,7.65
2023-04-25T11:08:34.296Z,6.15
2023-04-25T11:11:00.237Z,7.10
2023-04-25T11:13:30.455Z,9.80
2023-04-25T11:16:07.078Z,7.20
2023-04-25T11:18:41.796Z,7.00
2023-04-25T11:21:07.616Z,8.93
2023-04-25T11:23:34.659Z,5.13
2023-04-25T11:26:01.721Z,8.00
2023-04-25T11:28:27.868Z,8.60
2023-04-25T11:30:54.270Z,8.77
2023-04-25T11:33:28.841Z,5.00
2023-04-25T11:35:58.123Z,6.13
2023-04-25T11:38:27.341Z,7.13
2023-04-25T11:40:54.875Z,5.75
2023-04-25T11:43:21.921Z,7.40
2023-04-25T11:45:52.557Z,5.35
2023-04-25T11:48:19.724Z,5.97
2023-04-25T11:50:47.696Z,6.82
2023-04-25T11:53:13.745Z,10.25
2023-04-25T11:55:40.401Z,8.15
2023-04-25T11:58:06.728Z,4.47
2023-04-25T12:00:32.587Z,7.90
2023-04-25T12:02:59.013Z,3.72
2023-04-25T12:05:32.821Z,6.18
2023-04-25T12:08:12.728Z,3.90
2023-04-25T12:10:43.339Z,6.03
2023-04-25T12:13:20.198Z,7.40
2023-04-25T12:15:46.251Z,4.43
2023-04-25T12:18:12.161Z,5.85
2023-04-25T12:20:38.022Z,8.55
2023-04-25T12:23:08.120Z,6.68
2023-04-25T12:25:42.263Z,5.57
2023-04-25T12:28:14.998Z,8.40
2023-04-25T12:31:02.217Z,8.75
2023-04-25T12:33:30.624Z,6.43
2023-04-25T12:35:57.852Z,10.70
2023-04-25T12:38:31.127Z,6.60
2023-04-25T12:40:57.977Z,5.40
2023-04-25T12:43:24.130Z,4.18
2023-04-25T12:45:51.781Z,7.35
2023-04-25T12:48:18.383Z,11.68
2023-04-25T12:50:44.432Z,5.40
2023-04-25T12:53:11.741Z,2.95
2023-04-25T12:55:37.774Z,6.80
2023-04-25T12:58:03.626Z,5.68
2023-04-25T13:00:30.335Z,3.85
2023-04-25T13:02:56.434Z,3.55
2023-04-25T13:05:22.515Z,2.75
2023-04-25T13:07:48.317Z,8.05
2023-04-25T13:10:14.177Z,4.57
2023-04-25T13:12:40.038Z,5.65
2023-04-25T13:15:07.236Z,9.88
2023-04-25T13:17:33.095Z,4.75
2023-04-25T13:19:58.899Z,3.58
2023-04-25T13:22:24.922Z,6.25
2023-04-25T13:24:50.778Z,5.30
2023-04-25T13:27:16.667Z,3.80
2023-04-25T13:29:42.517Z,7.40
2023-04-25T13:32:09.406Z,4.15
2023-04-25T13:34:35.263Z,4.68
2023-04-25T13:37:01.116Z,6.93
2023-04-25T13:39:26.950Z,8.60
2023-04-25T13:41:52.797Z,10.45
2023-04-25T13:44:18.735Z,3.22
2023-04-25T13:46:47.451Z,3.97
2023-04-25T13:49:13.961Z,3.85
2023-04-25T13:51:40.627Z,7.28
2023-04-25T13:54:06.503Z,7.43
2023-04-25T13:56:32.348Z,4.65
2023-04-25T13:58:58.406Z,6.60
2023-04-25T14:01:24.268Z,8.50
2023-04-25T14:03:50.549Z,5.85
2023-04-25T14:06:22.871Z,7.60
2023-04-25T14:08:50.215Z,7.07
2023-04-25T14:11:18.178Z,4.55
2023-04-25T14:13:45.078Z,5.85
2023-04-25T14:16:10.995Z,3.92
2023-04-25T14:18:36.921Z,5.50
2023-04-25T14:21:02.923Z,4.00
2023-04-25T14:23:28.852Z,5.10
2023-04-25T14:25:54.756Z,4.28
2023-04-25T14:28:20.655Z,6.72
2023-04-25T14:30:46.474Z,6.90
2023-04-25T14:33:12.332Z,4.40
2023-04-25T14:35:38.290Z,6.25
2023-04-25T14:38:04.144Z,8.43
2023-04-25T14:40:30.137Z,5.90
2023-04-25T14:42:55.934Z,5.05
2023-04-25T14:45:21.693Z,5.40
2023-04-25T14:47:47.574Z,5.55
2023-04-25T14:50:13.472Z,5.00
2023-04-25T14:52:39.482Z,3.33
2023-04-25T14:55:05.563Z,4.57
2023-04-25T14:57:33.067Z,10.95
2023-04-25T14:59:58.998Z,5.30
2023-04-25T15:02:24.962Z,5.82
2023-04-25T15:04:51.104Z,4.82
2023-04-25T15:07:18.532Z,5.78
2023-04-25T15:09:44.631Z,2.78
2023-04-25T15:12:10.998Z,3.35
2023-04-25T15:14:36.909Z,4.07
2023-04-25T15:17:02.801Z,8.25
2023-04-25T15:19:28.612Z,5.07
2023-04-25T15:21:54.922Z,2.80
2023-04-25T15:24:21.714Z,4.13
2023-04-25T15:26:47.899Z,6.35
2023-04-25T15:29:13.799Z,5.30
2023-04-25T15:31:39.610Z,5.28
2023-04-25T15:34:05.656Z,3.85
2023-04-25T15:36:31.776Z,3.15
2023-04-25T15:38:57.668Z,3.22
2023-04-25T15:41:24.831Z,4.57
2023-04-25T15:43:52.383Z,5.05
2023-04-25T15:46:18.462Z,2.50
2023-04-25T15:48:44.329Z,6.45
2023-04-25T15:51:10.353Z,3.60
2023-04-25T15:53:36.619Z,3.20
2023-04-25T15:56:03.928Z,2.42
2023-04-25T15:58:29.904Z,3.38
2023-04-25T16:00:56.798Z,4.30
2023-04-25T16:03:23.210Z,4.13
2023-04-25T16:05:49.757Z,4.90
2023-04-25T16:08:16.002Z,5.10
2023-04-25T16:10:42.280Z,5.50
2023-04-25T16:13:08.161Z,3.97
2023-04-25T16:15:35.476Z,6.72
2023-04-25T16:18:01.817Z,5.53
2023-04-25T16:20:27.780Z,5.43
2023-04-25T16:22:53.649Z,3.97
2023-04-25T16:25:21.362Z,5.05
2023-04-25T16:27:47.280Z,6.00
2023-04-25T16:30:13.538Z,5.15
2023-04-25T16:32:42.547Z,4.78
2023-04-25T16:35:10.282Z,5.15
2023-04-25T16:37:36.259Z,6.05
2023-04-25T16:40:02.275Z,9.48
2023-04-25T16:42:28.097Z,6.88
2023-04-25T16:44:53.901Z,6.75
2023-04-25T16:47:20.521Z,7.93
2023-04-25T16:49:46.619Z,5.57
2023-04-25T16:52:12.841Z,4.10
2023-04-25T16:54:40.060Z,3.22
2023-04-25T16:57:09.641Z,8.20
2023-04-25T16:59:35.444Z,4.75
2023-04-25T17:02:01.782Z,6.72
2023-04-25T17:04:28.087Z,7.55
2023-04-25T17:06:53.983Z,5.30
2023-04-25T17:09:20.745Z,6.05
2023-04-25T17:11:47.668Z,7.18
2023-04-25T17:14:13.527Z,6.15
2023-04-25T17:16:39.397Z,8.38
2023-04-25T17:19:05.577Z,3.88
2023-04-25T17:21:32.341Z,4.32
2023-04-25T17:23:58.615Z,5.13
2023-04-25T17:26:25.761Z,8.15
2023-04-25T17:28:53.003Z,4.72
2023-04-25T17:31:20.996Z,5.05
2023-04-25T17:33:47.759Z,3.60
2023-04-25T17:36:14.325Z,5.38
2023-04-25T17:38:40.107Z,7.93
2023-04-25T17:41:05.945Z,5.82
2023-04-25T17:43:32.426Z,7.47
2023-04-25T17:45:58.815Z,5.03
2023-04-25T17:48:25.998Z,4.38
2023-04-25T17:50:51.879Z,9.75
2023-04-25T17:53:18.001Z,5.65
2023-04-25T17:55:44.511Z,4.07
2023-04-25T17:58:10.730Z,4.95
2023-04-25T18:00:37.987Z,5.07
2023-04-25T18:03:04.089Z,6.63
2023-04-25T18:05:31.220Z,7.70
2023-04-25T18:07:57.316Z,4.10
2023-04-25T18:10:23.230Z,7.53
2023-04-25T18:12:50.016Z,5.68
2023-04-25T18:15:16.019Z,6.80
2023-04-25T18:17:42.267Z,5.80
2023-04-25T18:20:15.013Z,8.73
2023-04-25T18:22:42.375Z,6.30
2023-04-25T18:25:12.988Z,4.35
2023-04-25T18:27:40.336Z,7.13
2023-04-25T18:30:08.690Z,5.50
2023-04-25T18:32:34.863Z,6.70
2023-04-25T18:35:00.823Z,10.27
2023-04-25T18:37:27.651Z,6.53
2023-04-25T18:39:53.812Z,6.07
2023-04-25T18:42:20.036Z,4.88
2023-04-25T18:44:46.253Z,8.25
2023-04-25T18:47:17.840Z,5.53
2023-04-25T18:49:44.522Z,4.22
2023-04-25T18:52:12.162Z,5.68
2023-04-25T18:54:38.237Z,7.85
2023-04-25T18:57:05.363Z,3.72
2023-04-25T18:59:32.331Z,8.25
2023-04-25T19:02:00.969Z,6.05
2023-04-25T19:04:28.050Z,9.70
2023-04-25T19:06:54.241Z,8.45
2023-04-25T19:09:20.124Z,6.47
2023-04-25T19:11:46.188Z,8.77
2023-04-25T19:14:13.669Z,7.45
2023-04-25T19:16:39.959Z,12.77
2023-04-25T19:19:06.930Z,6.45
2023-04-25T19:21:32.816Z,7.15
2023-04-25T19:24:00.622Z,4.95
2023-04-25T19:26:26.719Z,7.88
2023-04-25T19:29:03.711Z,7.65
2023-04-25T19:31:30.068Z,4.07
2023-04-25T19:33:56.326Z,3.47
2023-04-25T19:36:23.994Z,6.40
2023-04-25T19:38:50.422Z,5.05
2023-04-25T19:41:17.425Z,3.88
2023-04-25T19:43:43.352Z,7.28
2023-04-25T19:46:09.688Z,3.22
2023-04-25T19:48:35.649Z,3.03
2023-04-25T19:51:01.650Z,8.02
2023-04-25T19:53:27.599Z,4.90
2023-04-25T19:55:53.434Z,6.50
2023-04-25T19:58:19.259Z,5.22
2023-04-25T20:00:45.423Z,6.88
2023-04-25T20:03:11.477Z,8.10
2023-04-25T20:05:37.378Z,7.78
2023-04-25T20:08:03.930Z,5.40
2023-04-25T20:10:29.852Z,9.52
2023-04-25T20:12:55.647Z,6.45
2023-04-25T20:15:21.587Z,7.25
2023-04-25T20:17:47.905Z,4.93
2023-04-25T20:20:13.713Z,9.90
2023-04-25T20:22:39.664Z,9.07
2023-04-25T20:25:08.006Z,10.68
2023-04-25T20:27:33.901Z,11.05
2023-04-25T20:30:04.048Z,11.05
2023-04-25T20:32:33.563Z,4.10
2023-04-25T20:35:04.375Z,6.80
2023-04-25T20:37:33.888Z,12.48
2023-04-25T20:40:01.066Z,9.68
2023-04-25T20:42:27.188Z,4.00
2023-04-25T20:44:53.838Z,7.85
2023-04-25T20:47:19.958Z,5.70
2023-04-25T20:49:46.232Z,7.07
2023-04-25T20:52:12.125Z,6.88
2023-04-25T20:54:37.989Z,6.72
2023-04-25T20:57:04.567Z,7.22
2023-04-25T20:59:30.357Z,7.80
2023-04-25T21:01:56.310Z,14.10
2023-04-25T21:04:22.825Z,9.20
2023-04-25T21:06:49.714Z,5.53
2023-04-25T21:09:15.868Z,5.43
2023-04-25T21:11:41.756Z,7.68
2023-04-25T21:14:08.007Z,6.32
2023-04-25T21:16:35.153Z,5.90
2023-04-25T21:19:01.667Z,7.65
2023-04-25T21:21:28.068Z,6.55
2023-04-25T21:23:54.666Z,7.60
2023-04-25T21:26:21.429Z,11.38
2023-04-25T21:28:47.563Z,5.45
2023-04-25T21:31:14.224Z,7.20
2023-04-25T21:33:40.953Z,4.70
2023-04-25T21:36:07.424Z,8.77
2023-04-25T21:38:33.276Z,9.40
2023-04-25T21:40:59.132Z,6.53
2023-04-25T21:43:24.911Z,8.48
2023-04-25T21:46:11.092Z,7.22
2023-04-25T21:48:37.297Z,6.40
2023-04-25T21:51:03.510Z,7.82
2023-04-25T21:53:29.329Z,8.65
2023-04-25T21:55:58.246Z,4.90
2023-04-25T21:58:24.083Z,4.55
2023-04-25T22:00:50.172Z,11.00
2023-04-25T22:03:16.471Z,9.48
2023-04-25T22:05:43.525Z,6.72
2023-04-25T22:08:09.691Z,4.75
2023-04-25T22:10:35.475Z,9.40
2023-04-25T22:13:01.281Z,9.70
2023-04-25T22:15:28.845Z,7.53
2023-04-25T22:17:54.697Z,14.45
2023-04-25T22:20:25.162Z,13.00
2023-04-25T22:22:51.812Z,7.75
2023-04-25T22:25:18.672Z,4.97
2023-04-25T22:27:44.462Z,9.63
2023-04-25T22:30:14.395Z,7.15
2023-04-25T22:32:40.927Z,10.25
2023-04-25T22:35:08.209Z,11.25
2023-04-25T22:37:35.192Z,5.45
2023-04-25T22:40:08.377Z,7.07
2023-04-25T22:42:41.635Z,5.45
2023-04-25T22:45:08.424Z,8.25
2023-04-25T22:47:38.245Z,10.00
2023-04-25T22:50:07.694Z,7.47
2023-04-25T22:52:34.103Z,13.25
2023-04-25T22:55:03.956Z,5.45
2023-04-25T22:57:29.992Z,8.52
2023-04-25T22:59:56.104Z,10.23
2023-04-25T23:02:22.491Z,7.65
2023-04-25T23:04:49.692Z,5.28
2023-04-25T23:07:17.801Z,10.60
2023-04-25T23:09:44.405Z,8.93
2023-04-25T23:12:10.526Z,13.02
2023-04-25T23:14:36.348Z,7.43
2023-04-25T23:17:02.185Z,9.02
2023-04-25T23:19:28.954Z,7.75
2023-04-25T23:21:54.814Z,7.80
2023-04-25T23:24:20.668Z,7.20
2023-04-25T23:26:46.496Z,10.60
2023-04-25T23:29:12.340Z,8.20
2023-04-25T23:31:38.616Z,13.35
2023-04-25T23:34:04.460Z,10.23
2023-04-25T23:36:30.331Z,15.18
2023-04-25T23:38:56.376Z,21.08
2023-04-25T23:41:22.369Z,21.95
2023-04-25T23:43:48.357Z,21.98
2023-04-25T23:46:14.143Z,17.60
2023-04-25T23:48:40.666Z,9.93
2023-04-25T23:51:06.478Z,12.00
2023-04-25T23:53:32.445Z,14.45
2023-04-25T23:55:58.322Z,12.82
2023-04-25T23:58:24.206Z,10.60
